sensor_id;sensor_type;location;lat;lon;timestamp;pressure;altitude;pressure_sealevel;temperature;humidity
19112;BME280;9688;51.906;8.376;2023-02-19T00:02:31;100689.09;;;10.56;100.00
19112;BME280;9688;51.906;8.376;2023-02-19T00:05:18;100686.38;;;10.58;100.00
19112;BME280;9688;51.906;8.376;2023-02-19T00:08:04;100688.13;;;10.59;100.00
19112;BME280;9688;51.906;8.376;2023-02-19T00:10:51;100690.81;;;10.57;100.00
19112;BME280;9688;51.906;8.376;2023-02-19T00:13:39;100689.03;;;10.58;100.00
19112;BME280;9688;51.906;8.376;2023-02-19T00:16:27;100697.78;;;10.60;100.00
19112;BME280;9688;51.906;8.376;2023-02-19T00:19:14;100683.75;;;10.58;100.00
19112;BME280;9688;51.906;8.376;2023-02-19T00:22:00;100683.88;;;10.55;100.00
19112;BME280;9688;51.906;8.376;2023-02-19T00:24:47;100680.38;;;10.54;100.00
19112;BME280;9688;51.906;8.376;2023-02-19T00:27:34;100674.16;;;10.55;100.00
19112;BME280;9688;51.906;8.376;2023-02-19T00:30:20;100670.47;;;10.59;100.00
19112;BME280;9688;51.906;8.376;2023-02-19T00:33:06;100673.97;;;10.60;100.00
19112;BME280;9688;51.906;8.376;2023-02-19T00:35:53;100674.78;;;10.62;100.00
19112;BME280;9688;51.906;8.376;2023-02-19T00:38:40;100655.34;;;10.63;100.00
19112;BME280;9688;51.906;8.376;2023-02-19T00:41:26;100649.22;;;10.62;100.00
19112;BME280;9688;51.906;8.376;2023-02-19T00:44:15;100644.81;;;10.61;100.00
19112;BME280;9688;51.906;8.376;2023-02-19T00:47:01;100649.34;;;10.59;100.00
19112;BME280;9688;51.906;8.376;2023-02-19T00:49:47;100646.69;;;10.59;100.00
19112;BME280;9688;51.906;8.376;2023-02-19T00:52:32;100652.88;;;10.58;100.00
19112;BME280;9688;51.906;8.376;2023-02-19T00:55:18;100649.25;;;10.61;100.00
19112;BME280;9688;51.906;8.376;2023-02-19T00:58:04;100651.91;;;10.61;100.00
19112;BME280;9688;51.906;8.376;2023-02-19T01:00:51;100650.88;;;10.65;100.00
19112;BME280;9688;51.906;8.376;2023-02-19T01:03:38;100654.22;;;10.70;100.00
19112;BME280;9688;51.906;8.376;2023-02-19T01:06:24;100654.25;;;10.68;100.00
19112;BME280;9688;51.906;8.376;2023-02-19T01:09:13;100655.13;;;10.69;100.00
19112;BME280;9688;51.906;8.376;2023-02-19T01:11:59;100647.06;;;10.72;100.00
19112;BME280;9688;51.906;8.376;2023-02-19T01:14:45;100654.09;;;10.73;100.00
19112;BME280;9688;51.906;8.376;2023-02-19T01:17:34;100650.50;;;10.74;100.00
19112;BME280;9688;51.906;8.376;2023-02-19T01:20:20;100649.53;;;10.77;100.00
19112;BME280;9688;51.906;8.376;2023-02-19T01:23:06;100653.03;;;10.77;100.00
19112;BME280;9688;51.906;8.376;2023-02-19T01:25:51;100648.59;;;10.78;100.00
19112;BME280;9688;51.906;8.376;2023-02-19T01:28:38;100649.50;;;10.78;100.00
19112;BME280;9688;51.906;8.376;2023-02-19T01:31:24;100649.41;;;10.80;100.00
19112;BME280;9688;51.906;8.376;2023-02-19T01:34:11;100649.41;;;10.80;100.00
19112;BME280;9688;51.906;8.376;2023-02-19T01:36:57;100656.41;;;10.81;100.00
19112;BME280;9688;51.906;8.376;2023-02-19T01:39:44;100646.78;;;10.80;100.00
19112;BME280;9688;51.906;8.376;2023-02-19T01:42:31;100647.63;;;10.80;100.00
19112;BME280;9688;51.906;8.376;2023-02-19T01:45:22;100641.38;;;10.83;100.00
19112;BME280;9688;51.906;8.376;2023-02-19T01:48:11;100643.97;;;10.84;100.00
19112;BME280;9688;51.906;8.376;2023-02-19T01:51:05;100642.13;;;10.86;100.00
19112;BME280;9688;51.906;8.376;2023-02-19T01:53:56;100661.38;;;10.90;100.00
19112;BME280;9688;51.906;8.376;2023-02-19T01:56:45;100643.72;;;10.90;100.00
19112;BME280;9688;51.906;8.376;2023-02-19T01:59:32;100653.34;;;10.91;100.00
19112;BME280;9688;51.906;8.376;2023-02-19T02:02:18;100648.88;;;10.93;100.00
19112;BME280;9688;51.906;8.376;2023-02-19T02:05:07;100644.44;;;10.94;100.00
19112;BME280;9688;51.906;8.376;2023-02-19T02:07:56;100644.53;;;10.92;100.00
19112;BME280;9688;51.906;8.376;2023-02-19T02:11:01;100647.03;;;10.96;100.00
19112;BME280;9688;51.906;8.376;2023-02-19T02:13:47;100646.19;;;10.95;100.00
19112;BME280;9688;51.906;8.376;2023-02-19T02:16:42;100653.19;;;10.96;100.00
19112;BME280;9688;51.906;8.376;2023-02-19T02:20:00;100647.09;;;10.94;100.00
19112;BME280;9688;51.906;8.376;2023-02-19T02:22:53;100642.66;;;10.94;100.00
19112;BME280;9688;51.906;8.376;2023-02-19T02:25:59;100640.00;;;10.94;100.00
19112;BME280;9688;51.906;8.376;2023-02-19T02:29:10;100639.22;;;10.92;100.00
19112;BME280;9688;51.906;8.376;2023-02-19T02:32:05;100637.44;;;10.93;100.00
19112;BME280;9688;51.906;8.376;2023-02-19T02:34:58;100632.16;;;10.93;100.00
19112;BME280;9688;51.906;8.376;2023-02-19T02:37:46;100634.00;;;10.91;100.00
19112;BME280;9688;51.906;8.376;2023-02-19T02:40:32;100634.84;;;10.91;100.00
19112;BME280;9688;51.906;8.376;2023-02-19T02:43:22;100636.72;;;10.89;100.00
19112;BME280;9688;51.906;8.376;2023-02-19T02:46:14;100624.38;;;10.88;100.00
19112;BME280;9688;51.906;8.376;2023-02-19T02:49:05;100643.84;;;10.87;100.00
19112;BME280;9688;51.906;8.376;2023-02-19T02:51:53;100645.66;;;10.85;100.00
19112;BME280;9688;51.906;8.376;2023-02-19T02:54:40;100642.16;;;10.85;100.00
19112;BME280;9688;51.906;8.376;2023-02-19T02:57:44;100649.25;;;10.84;100.00
19112;BME280;9688;51.906;8.376;2023-02-19T03:00:32;100644.00;;;10.83;100.00
19112;BME280;9688;51.906;8.376;2023-02-19T03:03:34;100643.09;;;10.84;100.00
19112;BME280;9688;51.906;8.376;2023-02-19T03:06:27;100641.25;;;10.86;100.00
19112;BME280;9688;51.906;8.376;2023-02-19T03:09:19;100644.78;;;10.86;100.00
19112;BME280;9688;51.906;8.376;2023-02-19T03:12:14;100642.22;;;10.83;100.00
19112;BME280;9688;51.906;8.376;2023-02-19T03:15:20;100646.66;;;10.83;100.00
19112;BME280;9688;51.906;8.376;2023-02-19T03:18:27;100636.94;;;10.83;100.00
19112;BME280;9688;51.906;8.376;2023-02-19T03:21:34;100641.38;;;10.83;100.00
19112;BME280;9688;51.906;8.376;2023-02-19T03:24:27;100646.66;;;10.83;100.00
19112;BME280;9688;51.906;8.376;2023-02-19T03:27:32;100642.22;;;10.83;100.00
19112;BME280;9688;51.906;8.376;2023-02-19T03:30:22;100639.56;;;10.83;100.00
19112;BME280;9688;51.906;8.376;2023-02-19T03:33:11;100653.72;;;10.82;100.00
19112;BME280;9688;51.906;8.376;2023-02-19T03:36:01;100655.63;;;10.79;100.00
19112;BME280;9688;51.906;8.376;2023-02-19T03:38:56;100657.34;;;10.80;100.00
19112;BME280;9688;51.906;8.376;2023-02-19T03:41:49;100662.72;;;10.78;100.00
19112;BME280;9688;51.906;8.376;2023-02-19T03:44:40;100666.38;;;10.74;100.00
19112;BME280;9688;51.906;8.376;2023-02-19T03:47:32;100670.06;;;10.70;100.00
19112;BME280;9688;51.906;8.376;2023-02-19T03:50:24;100670.25;;;10.65;100.00
19112;BME280;9688;51.906;8.376;2023-02-19T03:53:20;100673.88;;;10.63;100.00
19112;BME280;9688;51.906;8.376;2023-02-19T03:56:14;100674.97;;;10.57;100.00
19112;BME280;9688;51.906;8.376;2023-02-19T03:59:07;100684.78;;;10.54;100.00
19112;BME280;9688;51.906;8.376;2023-02-19T04:01:56;100673.53;;;10.48;100.00
19112;BME280;9688;51.906;8.376;2023-02-19T04:04:48;100679.75;;;10.47;100.00
19112;BME280;9688;51.906;8.376;2023-02-19T04:07:39;100700.00;;;10.47;100.00
19112;BME280;9688;51.906;8.376;2023-02-19T04:10:27;100696.34;;;10.51;100.00
19112;BME280;9688;51.906;8.376;2023-02-19T04:13:19;100702.44;;;10.53;100.00
19112;BME280;9688;51.906;8.376;2023-02-19T04:16:09;100704.31;;;10.49;100.00
19112;BME280;9688;51.906;8.376;2023-02-19T04:18:59;100705.25;;;10.48;100.00
19112;BME280;9688;51.906;8.376;2023-02-19T04:21:48;100705.34;;;10.45;100.00
19112;BME280;9688;51.906;8.376;2023-02-19T04:24:38;100703.56;;;10.46;100.00
19112;BME280;9688;51.906;8.376;2023-02-19T04:27:25;100718.47;;;10.48;100.00
19112;BME280;9688;51.906;8.376;2023-02-19T04:30:15;100721.09;;;10.48;100.00
19112;BME280;9688;51.906;8.376;2023-02-19T04:33:00;100720.25;;;10.48;100.00
19112;BME280;9688;51.906;8.376;2023-02-19T04:35:46;100715.81;;;10.48;100.00
19112;BME280;9688;51.906;8.376;2023-02-19T04:38:32;100725.41;;;10.51;100.00
19112;BME280;9688;51.906;8.376;2023-02-19T04:41:18;100735.97;;;10.51;100.00
19112;BME280;9688;51.906;8.376;2023-02-19T04:44:04;100739.59;;;10.48;100.00
19112;BME280;9688;51.906;8.376;2023-02-19T04:46:51;100738.66;;;10.49;100.00
19112;BME280;9688;51.906;8.376;2023-02-19T04:49:37;100735.16;;;10.49;100.00
19112;BME280;9688;51.906;8.376;2023-02-19T04:52:22;100739.63;;;10.47;100.00
19112;BME280;9688;51.906;8.376;2023-02-19T04:55:08;100759.03;;;10.47;100.00
19112;BME280;9688;51.906;8.376;2023-02-19T04:57:54;100766.03;;;10.48;100.00
19112;BME280;9688;51.906;8.376;2023-02-19T05:00:40;100763.38;;;10.48;100.00
19112;BME280;9688;51.906;8.376;2023-02-19T05:03:27;100760.75;;;10.48;100.00
19112;BME280;9688;51.906;8.376;2023-02-19T05:06:13;100767.00;;;10.46;100.00
19112;BME280;9688;51.906;8.376;2023-02-19T05:08:59;100772.25;;;10.47;100.00
19112;BME280;9688;51.906;8.376;2023-02-19T05:11:45;100780.97;;;10.49;100.00
19112;BME280;9688;51.906;8.376;2023-02-19T05:14:31;100797.59;;;10.53;100.00
19112;BME280;9688;51.906;8.376;2023-02-19T05:17:17;100792.31;;;10.53;100.00
19112;BME280;9688;51.906;8.376;2023-02-19T05:20:08;100783.59;;;10.49;100.00
19112;BME280;9688;51.906;8.376;2023-02-19T05:22:54;100788.78;;;10.53;100.00
19112;BME280;9688;51.906;8.376;2023-02-19T05:25:40;100793.09;;;10.55;100.00
19112;BME280;9688;51.906;8.376;2023-02-19T05:28:26;100800.13;;;10.56;100.00
19112;BME280;9688;51.906;8.376;2023-02-19T05:31:13;100806.31;;;10.55;100.00
19112;BME280;9688;51.906;8.376;2023-02-19T05:33:59;100805.41;;;10.56;100.00
19112;BME280;9688;51.906;8.376;2023-02-19T05:36:46;100801.03;;;10.55;100.00
19112;BME280;9688;51.906;8.376;2023-02-19T05:39:33;100814.34;;;10.52;100.00
19112;BME280;9688;51.906;8.376;2023-02-19T05:42:19;100814.41;;;10.51;100.00
19112;BME280;9688;51.906;8.376;2023-02-19T05:45:05;100814.53;;;10.47;100.00
19112;BME280;9688;51.906;8.376;2023-02-19T05:47:52;100822.47;;;10.47;100.00
19112;BME280;9688;51.906;8.376;2023-02-19T05:50:38;100823.44;;;10.45;100.00
19112;BME280;9688;51.906;8.376;2023-02-19T05:53:25;100826.06;;;10.45;100.00
19112;BME280;9688;51.906;8.376;2023-02-19T05:56:26;100832.31;;;10.42;100.00
19112;BME280;9688;51.906;8.376;2023-02-19T05:59:16;100839.31;;;10.43;100.00
19112;BME280;9688;51.906;8.376;2023-02-19T06:02:02;100833.22;;;10.41;100.00
19112;BME280;9688;51.906;8.376;2023-02-19T06:04:47;100848.22;;;10.41;100.00
19112;BME280;9688;51.906;8.376;2023-02-19T06:07:34;100860.47;;;10.43;100.00
19112;BME280;9688;51.906;8.376;2023-02-19T06:10:22;100860.56;;;10.40;100.00
19112;BME280;9688;51.906;8.376;2023-02-19T06:13:08;100857.13;;;10.38;100.00
19112;BME280;9688;51.906;8.376;2023-02-19T06:15:54;100874.91;;;10.33;100.00
19112;BME280;9688;51.906;8.376;2023-02-19T06:18:40;100871.50;;;10.30;100.00
19112;BME280;9688;51.906;8.376;2023-02-19T06:21:26;100883.94;;;10.26;100.00
19112;BME280;9688;51.906;8.376;2023-02-19T06:24:11;100876.03;;;10.24;100.00
19112;BME280;9688;51.906;8.376;2023-02-19T06:26:58;100876.97;;;10.23;100.00
19112;BME280;9688;51.906;8.376;2023-02-19T06:29:44;100891.97;;;10.23;100.00
19112;BME280;9688;51.906;8.376;2023-02-19T06:32:32;100895.56;;;10.20;100.00
19112;BME280;9688;51.906;8.376;2023-02-19T06:35:19;100901.72;;;10.21;100.00
19112;BME280;9688;51.906;8.376;2023-02-19T06:38:04;100897.28;;;10.21;100.00
19112;BME280;9688;51.906;8.376;2023-02-19T06:40:50;100896.34;;;10.22;100.00
19112;BME280;9688;51.906;8.376;2023-02-19T06:43:37;100904.25;;;10.24;100.00
19112;BME280;9688;51.906;8.376;2023-02-19T06:46:23;100908.59;;;10.25;100.00
19112;BME280;9688;51.906;8.376;2023-02-19T06:49:08;100911.25;;;10.25;100.00
19112;BME280;9688;51.906;8.376;2023-02-19T06:51:54;100913.88;;;10.25;100.00
19112;BME280;9688;51.906;8.376;2023-02-19T06:54:39;100925.38;;;10.24;100.00
19112;BME280;9688;51.906;8.376;2023-02-19T06:57:26;100929.75;;;10.25;100.00
19112;BME280;9688;51.906;8.376;2023-02-19T07:00:16;100933.13;;;10.30;100.00
19112;BME280;9688;51.906;8.376;2023-02-19T07:03:03;100938.38;;;10.32;100.00
19112;BME280;9688;51.906;8.376;2023-02-19T07:05:49;100945.38;;;10.33;100.00
19112;BME280;9688;51.906;8.376;2023-02-19T07:08:34;100953.31;;;10.33;100.00
19112;BME280;9688;51.906;8.376;2023-02-19T07:11:20;100954.13;;;10.35;100.00
19112;BME280;9688;51.906;8.376;2023-02-19T07:14:09;100962.06;;;10.35;100.00
19112;BME280;9688;51.906;8.376;2023-02-19T07:16:59;100964.75;;;10.33;100.00
19112;BME280;9688;51.906;8.376;2023-02-19T07:19:45;100972.63;;;10.35;100.00
19112;BME280;9688;51.906;8.376;2023-02-19T07:22:31;100983.97;;;10.38;100.00
19112;BME280;9688;51.906;8.376;2023-02-19T07:25:16;100985.66;;;10.41;100.00
19112;BME280;9688;51.906;8.376;2023-02-19T07:28:02;101027.94;;;10.41;100.00
19112;BME280;9688;51.906;8.376;2023-02-19T07:30:48;101041.69;;;9.93;100.00
19112;BME280;9688;51.906;8.376;2023-02-19T07:33:35;101054.91;;;9.27;100.00
19112;BME280;9688;51.906;8.376;2023-02-19T07:36:22;101057.81;;;8.82;100.00
19112;BME280;9688;51.906;8.376;2023-02-19T07:39:11;101059.41;;;8.51;100.00
19112;BME280;9688;51.906;8.376;2023-02-19T07:41:57;101076.56;;;8.28;100.00
19112;BME280;9688;51.906;8.376;2023-02-19T07:44:44;101071.72;;;8.10;100.00
19112;BME280;9688;51.906;8.376;2023-02-19T07:47:29;101086.81;;;8.00;100.00
19112;BME280;9688;51.906;8.376;2023-02-19T07:50:17;101089.72;;;7.88;100.00
19112;BME280;9688;51.906;8.376;2023-02-19T07:53:03;101100.28;;;7.85;100.00
19112;BME280;9688;51.906;8.376;2023-02-19T07:55:49;101104.66;;;7.84;100.00
19112;BME280;9688;51.906;8.376;2023-02-19T07:58:35;101114.44;;;7.79;100.00
19112;BME280;9688;51.906;8.376;2023-02-19T08:01:22;101108.47;;;7.69;100.00
19112;BME280;9688;51.906;8.376;2023-02-19T08:04:28;101105.97;;;7.62;100.00
19112;BME280;9688;51.906;8.376;2023-02-19T08:07:14;101113.84;;;7.63;100.00
19112;BME280;9688;51.906;8.376;2023-02-19T08:10:03;101118.94;;;7.72;100.00
19112;BME280;9688;51.906;8.376;2023-02-19T08:13:10;101122.34;;;7.77;100.00
19112;BME280;9688;51.906;8.376;2023-02-19T08:16:11;101143.34;;;7.82;100.00
19112;BME280;9688;51.906;8.376;2023-02-19T08:18:59;101133.69;;;7.81;100.00
19112;BME280;9688;51.906;8.376;2023-02-19T08:21:45;101149.47;;;7.82;100.00
19112;BME280;9688;51.906;8.376;2023-02-19T08:24:32;101142.50;;;7.78;100.00
19112;BME280;9688;51.906;8.376;2023-02-19T08:27:21;101142.50;;;7.80;100.00
19112;BME280;9688;51.906;8.376;2023-02-19T08:30:08;101146.78;;;7.84;100.00
19112;BME280;9688;51.906;8.376;2023-02-19T08:32:55;101154.66;;;7.86;100.00
19112;BME280;9688;51.906;8.376;2023-02-19T08:35:42;101154.72;;;7.82;100.00
19112;BME280;9688;51.906;8.376;2023-02-19T08:38:28;101156.56;;;7.79;100.00
19112;BME280;9688;51.906;8.376;2023-02-19T08:41:15;101159.19;;;7.79;100.00
19112;BME280;9688;51.906;8.376;2023-02-19T08:44:00;101168.75;;;7.83;100.00
19112;BME280;9688;51.906;8.376;2023-02-19T08:46:46;101162.53;;;7.87;100.00
19112;BME280;9688;51.906;8.376;2023-02-19T08:49:32;101176.56;;;7.88;100.00
19112;BME280;9688;51.906;8.376;2023-02-19T08:52:17;101184.47;;;7.88;100.00
19112;BME280;9688;51.906;8.376;2023-02-19T08:55:04;101189.66;;;7.91;100.00
19112;BME280;9688;51.906;8.376;2023-02-19T08:57:52;101192.22;;;7.95;100.00
19112;BME280;9688;51.906;8.376;2023-02-19T09:00:38;101196.66;;;7.92;100.00
19112;BME280;9688;51.906;8.376;2023-02-19T09:03:23;101214.16;;;7.96;100.00
19112;BME280;9688;51.906;8.376;2023-02-19T09:06:12;101213.25;;;7.97;100.00
19112;BME280;9688;51.906;8.376;2023-02-19T09:08:59;101210.66;;;7.95;100.00
19112;BME280;9688;51.906;8.376;2023-02-19T09:11:44;101211.47;;;7.99;100.00
19112;BME280;9688;51.906;8.376;2023-02-19T09:14:32;101216.75;;;7.97;100.00
19112;BME280;9688;51.906;8.376;2023-02-19T09:17:18;101223.78;;;7.97;100.00
19112;BME280;9688;51.906;8.376;2023-02-19T09:20:05;101228.19;;;7.95;100.00
19112;BME280;9688;51.906;8.376;2023-02-19T09:22:55;101230.69;;;8.02;100.00
19112;BME280;9688;51.906;8.376;2023-02-19T09:25:41;101242.94;;;8.05;100.00
19112;BME280;9688;51.906;8.376;2023-02-19T09:28:27;101244.78;;;8.00;100.00
19112;BME280;9688;51.906;8.376;2023-02-19T09:31:14;101244.94;;;7.91;100.00
19112;BME280;9688;51.906;8.376;2023-02-19T09:34:00;101252.84;;;7.89;100.00
19112;BME280;9688;51.906;8.376;2023-02-19T09:36:48;101254.47;;;7.98;100.00
19112;BME280;9688;51.906;8.376;2023-02-19T09:39:34;101257.81;;;8.06;100.00
19112;BME280;9688;51.906;8.376;2023-02-19T09:42:22;101265.53;;;8.18;100.00
19112;BME280;9688;51.906;8.376;2023-02-19T09:45:15;101278.56;;;8.26;100.00
19112;BME280;9688;51.906;8.376;2023-02-19T09:48:05;101277.59;;;8.30;100.00
19112;BME280;9688;51.906;8.376;2023-02-19T09:50:54;101280.09;;;8.36;100.00
19112;BME280;9688;51.906;8.376;2023-02-19T09:53:45;101295.91;;;8.36;100.00
19112;BME280;9688;51.906;8.376;2023-02-19T09:56:34;101311.72;;;8.36;100.00
19112;BME280;9688;51.906;8.376;2023-02-19T09:59:22;101314.41;;;8.35;100.00
19112;BME280;9688;51.906;8.376;2023-02-19T10:02:13;101325.97;;;8.26;100.00
19112;BME280;9688;51.906;8.376;2023-02-19T10:05:02;101339.22;;;8.20;100.00
19112;BME280;9688;51.906;8.376;2023-02-19T10:07:50;101343.63;;;8.19;100.00
19112;BME280;9688;51.906;8.376;2023-02-19T10:10:37;101344.53;;;8.17;100.00
19112;BME280;9688;51.906;8.376;2023-02-19T10:13:28;101357.66;;;8.21;100.00
19112;BME280;9688;51.906;8.376;2023-02-19T10:16:19;101363.72;;;8.25;100.00
19112;BME280;9688;51.906;8.376;2023-02-19T10:19:09;101370.66;;;8.31;100.00
19112;BME280;9688;51.906;8.376;2023-02-19T10:21:56;101376.84;;;8.28;100.00
19112;BME280;9688;51.906;8.376;2023-02-19T10:24:42;101386.56;;;8.24;100.00
19112;BME280;9688;51.906;8.376;2023-02-19T10:27:30;101380.38;;;8.29;100.00
19112;BME280;9688;51.906;8.376;2023-02-19T10:30:19;101382.84;;;8.38;100.00
19112;BME280;9688;51.906;8.376;2023-02-19T10:33:09;101390.53;;;8.50;100.00
19112;BME280;9688;51.906;8.376;2023-02-19T10:35:57;101402.00;;;8.49;100.00
19112;BME280;9688;51.906;8.376;2023-02-19T10:38:46;101401.94;;;8.52;100.00
19112;BME280;9688;51.906;8.376;2023-02-19T10:41:33;101411.56;;;8.53;100.00
19112;BME280;9688;51.906;8.376;2023-02-19T10:44:26;101416.66;;;8.64;100.00
19112;BME280;9688;51.906;8.376;2023-02-19T10:47:17;101413.91;;;8.71;99.72
19112;BME280;9688;51.906;8.376;2023-02-19T10:50:18;101406.59;;;8.87;98.87
19112;BME280;9688;51.906;8.376;2023-02-19T10:53:19;101404.69;;;8.94;98.54
19112;BME280;9688;51.906;8.376;2023-02-19T10:56:09;101411.69;;;8.95;97.97
19112;BME280;9688;51.906;8.376;2023-02-19T10:59:15;101421.53;;;8.87;98.32
19112;BME280;9688;51.906;8.376;2023-02-19T11:02:15;101418.97;;;8.82;97.84
19112;BME280;9688;51.906;8.376;2023-02-19T11:05:10;101430.31;;;8.86;98.12
19112;BME280;9688;51.906;8.376;2023-02-19T11:07:59;101434.84;;;8.79;97.66
19112;BME280;9688;51.906;8.376;2023-02-19T11:10:46;101439.16;;;8.85;97.77
19112;BME280;9688;51.906;8.376;2023-02-19T11:13:34;101438.91;;;8.97;97.04
19112;BME280;9688;51.906;8.376;2023-02-19T11:16:21;101440.59;;;9.01;96.84
19112;BME280;9688;51.906;8.376;2023-02-19T11:19:29;101447.66;;;8.99;96.87
19112;BME280;9688;51.906;8.376;2023-02-19T11:22:26;101457.16;;;9.09;96.97
19112;BME280;9688;51.906;8.376;2023-02-19T11:25:19;101465.06;;;9.09;96.69
19112;BME280;9688;51.906;8.376;2023-02-19T11:28:27;101463.25;;;9.11;96.32
19112;BME280;9688;51.906;8.376;2023-02-19T11:31:22;101444.75;;;9.14;96.37
19112;BME280;9688;51.906;8.376;2023-02-19T11:34:26;101445.44;;;9.23;95.12
19112;BME280;9688;51.906;8.376;2023-02-19T11:37:14;101437.44;;;9.27;94.86
19112;BME280;9688;51.906;8.376;2023-02-19T11:40:05;101438.88;;;9.45;94.53
19112;BME280;9688;51.906;8.376;2023-02-19T11:42:54;101434.22;;;9.56;93.37
19112;BME280;9688;51.906;8.376;2023-02-19T11:45:47;101434.72;;;9.74;93.06
19112;BME280;9688;51.906;8.376;2023-02-19T11:48:44;101443.34;;;9.82;92.11
19112;BME280;9688;51.906;8.376;2023-02-19T11:51:44;101439.28;;;9.67;91.19
19112;BME280;9688;51.906;8.376;2023-02-19T11:54:49;101435.88;;;9.62;91.11
19112;BME280;9688;51.906;8.376;2023-02-19T11:57:41;101435.66;;;9.71;90.92
19112;BME280;9688;51.906;8.376;2023-02-19T12:00:29;101427.53;;;9.80;89.71
19112;BME280;9688;51.906;8.376;2023-02-19T12:03:25;101427.28;;;9.91;89.23
19112;BME280;9688;51.906;8.376;2023-02-19T12:06:27;101422.69;;;9.99;89.43
19112;BME280;9688;51.906;8.376;2023-02-19T12:09:32;101421.81;;;10.00;88.87
19112;BME280;9688;51.906;8.376;2023-02-19T12:12:32;101428.16;;;9.92;90.17
19112;BME280;9688;51.906;8.376;2023-02-19T12:15:34;101427.47;;;9.83;90.01
19112;BME280;9688;51.906;8.376;2023-02-19T12:21:53;101432.47;;;9.96;89.05
19112;BME280;9688;51.906;8.376;2023-02-19T12:24:52;101435.13;;;9.96;88.65
19112;BME280;9688;51.906;8.376;2023-02-19T12:27:51;101440.34;;;9.99;88.32
19112;BME280;9688;51.906;8.376;2023-02-19T12:34:22;101447.72;;;10.22;87.28
19112;BME280;9688;51.906;8.376;2023-02-19T12:37:24;101443.28;;;10.22;85.74
19112;BME280;9688;51.906;8.376;2023-02-19T12:40:40;101452.91;;;10.26;86.28
19112;BME280;9688;51.906;8.376;2023-02-19T12:43:29;101455.31;;;10.37;86.20
19112;BME280;9688;51.906;8.376;2023-02-19T12:46:20;101454.06;;;10.52;85.74
19112;BME280;9688;51.906;8.376;2023-02-19T12:49:11;101465.31;;;10.62;84.60
19112;BME280;9688;51.906;8.376;2023-02-19T12:52:02;101456.38;;;10.66;83.62
19112;BME280;9688;51.906;8.376;2023-02-19T12:54:54;101463.53;;;10.61;84.09
19112;BME280;9688;51.906;8.376;2023-02-19T12:57:44;101474.03;;;10.64;83.55
19112;BME280;9688;51.906;8.376;2023-02-19T13:00:34;101468.47;;;10.75;83.94
19112;BME280;9688;51.906;8.376;2023-02-19T13:03:27;101477.16;;;10.81;82.89
19112;BME280;9688;51.906;8.376;2023-02-19T13:06:24;101476.41;;;10.75;83.53
19112;BME280;9688;51.906;8.376;2023-02-19T13:09:16;101478.78;;;10.85;83.21
19112;BME280;9688;51.906;8.376;2023-02-19T13:12:08;101479.78;;;10.81;82.52
19112;BME280;9688;51.906;8.376;2023-02-19T13:14:58;101477.09;;;10.83;82.82
19112;BME280;9688;51.906;8.376;2023-02-19T13:17:48;101483.06;;;10.91;82.26
19112;BME280;9688;51.906;8.376;2023-02-19T13:20:38;101472.47;;;10.91;81.96
19112;BME280;9688;51.906;8.376;2023-02-19T13:23:28;101468.94;;;10.92;82.21
19112;BME280;9688;51.906;8.376;2023-02-19T13:26:53;101469.91;;;10.88;82.30
19112;BME280;9688;51.906;8.376;2023-02-19T13:29:55;101468.22;;;10.85;82.28
19112;BME280;9688;51.906;8.376;2023-02-19T13:33:01;101470.84;;;10.87;81.70
19112;BME280;9688;51.906;8.376;2023-02-19T13:36:03;101475.78;;;10.99;81.40
19112;BME280;9688;51.906;8.376;2023-02-19T13:38:51;101476.44;;;11.07;81.80
19112;BME280;9688;51.906;8.376;2023-02-19T13:41:41;101479.78;;;11.14;81.39
19112;BME280;9688;51.906;8.376;2023-02-19T13:44:33;101481.44;;;11.20;80.75
19112;BME280;9688;51.906;8.376;2023-02-19T13:47:58;101485.03;;;11.17;80.28
19112;BME280;9688;51.906;8.376;2023-02-19T13:50:44;101489.75;;;11.04;79.69
19112;BME280;9688;51.906;8.376;2023-02-19T13:53:56;101486.56;;;10.91;79.70
19112;BME280;9688;51.906;8.376;2023-02-19T13:56:42;101482.94;;;10.96;80.49
19112;BME280;9688;51.906;8.376;2023-02-19T13:59:36;101476.16;;;10.85;79.67
19112;BME280;9688;51.906;8.376;2023-02-19T14:02:30;101476.91;;;10.90;78.99
19112;BME280;9688;51.906;8.376;2023-02-19T14:06:00;101481.19;;;10.94;79.13
19112;BME280;9688;51.906;8.376;2023-02-19T14:08:50;101483.63;;;11.04;79.93
19112;BME280;9688;51.906;8.376;2023-02-19T14:12:01;101489.59;;;11.10;79.54
19112;BME280;9688;51.906;8.376;2023-02-19T14:14:48;101498.75;;;10.97;80.11
19112;BME280;9688;51.906;8.376;2023-02-19T14:17:38;101499.88;;;10.88;79.10
19112;BME280;9688;51.906;8.376;2023-02-19T14:20:43;101505.13;;;10.90;79.48
19112;BME280;9688;51.906;8.376;2023-02-19T14:23:31;101509.44;;;10.94;80.00
19112;BME280;9688;51.906;8.376;2023-02-19T14:26:20;101505.91;;;10.93;79.68
19112;BME280;9688;51.906;8.376;2023-02-19T14:29:11;101518.22;;;10.94;79.01
19112;BME280;9688;51.906;8.376;2023-02-19T14:32:04;101516.41;;;10.97;79.50
19112;BME280;9688;51.906;8.376;2023-02-19T14:34:49;101527.13;;;10.92;78.95
19112;BME280;9688;51.906;8.376;2023-02-19T14:37:35;101531.09;;;10.74;80.07
19112;BME280;9688;51.906;8.376;2023-02-19T14:40:27;101533.03;;;10.67;80.57
19112;BME280;9688;51.906;8.376;2023-02-19T14:43:18;101527.75;;;10.66;80.43
19112;BME280;9688;51.906;8.376;2023-02-19T14:46:11;101540.28;;;10.59;79.23
19112;BME280;9688;51.906;8.376;2023-02-19T14:49:04;101546.56;;;10.54;80.89
19112;BME280;9688;51.906;8.376;2023-02-19T14:51:54;101543.09;;;10.52;80.60
19112;BME280;9688;51.906;8.376;2023-02-19T14:54:45;101528.78;;;10.60;79.70
19112;BME280;9688;51.906;8.376;2023-02-19T14:57:39;101518.94;;;10.67;79.22
19112;BME280;9688;51.906;8.376;2023-02-19T15:00:27;101518.13;;;10.63;79.43
19112;BME280;9688;51.906;8.376;2023-02-19T15:03:28;101503.19;;;10.62;79.68
19112;BME280;9688;51.906;8.376;2023-02-19T15:06:16;101494.25;;;10.66;79.96